Flight Track Log - Related Links

Times and Time Zones

All times are in EDT time to prevent confusion due to time zone crossing. See the N1944E flight status page for this flight to view local times or setup timezone preferences in your user account.

Time Position Orientation Groundspeed Altitude Reporting Facility
EDT Latitude Longitude Course Direction KTS MPH feet Rate Location/Type
Tue 21:10:07 45.3292 -111.4908 112° Southeast 128 147 10,600  Level Salt Center
Tue 21:11:09 45.3111 -111.4392 116° Southeast 144 166 11,400 878 Climbing Salt Center
Tue 21:12:10 45.2997 -111.3775 105° East 163 188 12,400 1,268 Climbing Salt Center
Tue 21:13:12 45.2808 -111.3067 111° Southeast 161 185 14,000 1,317 Climbing Salt Center
Tue 21:14:00 45.1835 -111.3174 108° East  Level Estimated
Tue 21:14:13 45.2686 -111.2489 107° East 155 178 15,100  Level Salt Center
Tue 21:15:00 45.1647 -111.2516 112° Southeast  Level FlightAware
Tue 21:15:15 45.2500 -111.1903 114° Southeast 161 185 15,900  Level Salt Center
Tue 21:16:16 45.2289 -111.1314 117° Southeast 166 191 16,500 541 Climbing Salt Center
Tue 21:17:17 45.2056 -111.0728 119° Southeast 170 196 17,000 293 Climbing Salt Center
Tue 21:18:19 45.1769 -111.0125 124° Southeast 180 207 17,100 49 Climbing Salt Center
Tue 21:19:20 45.1531 -110.9353 114° Southeast 205 236 17,100  Level Salt Center
Tue 21:20:22 45.1275 -110.8586 115° Southeast 213 245 17,100  Level Salt Center
Tue 21:21:23 45.0964 -110.7700 116° Southeast 219 252 17,100 -49 Level Salt Center
Tue 21:22:25 45.0653 -110.6867 118° Southeast 241 277 17,000  Descending Salt Center
Tue 21:23:26 45.0369 -110.5931 113° Southeast 234 269 17,100 49 Climbing Salt Center
Tue 21:24:28 45.0125 -110.5142 114° Southeast 230 265 17,100  Level Salt Center
Tue 21:25:29 44.9714 -110.4642 139° Southeast 211 243 17,100  Level Salt Center
Tue 21:26:30 44.9153 -110.4186 150° Southeast 208 239 17,100  Level Salt Center
Tue 21:27:32 44.8881 -110.3325 114° Southeast 237 273 17,100 -49 Level Salt Center
Tue 21:28:33 44.8636 -110.2328 109° East 243 280 17,000  Descending Salt Center
Tue 21:29:35 44.8428 -110.1519 110° East 237 273 17,100 49 Climbing Salt Center
Tue 21:30:36 44.8200 -110.0736 112° Southeast 230 265 17,100  Level Salt Center
Tue 21:31:38 44.7931 -109.9803 112° Southeast 230 265 17,100 -49 Level Salt Center
Tue 21:32:39 44.7706 -109.9000 112° Southeast 230 265 17,000 -443 Descending Salt Center
Tue 21:33:40 44.7417 -109.8028 113° Southeast 235 270 16,200 -634 Descending Salt Center
Tue 21:34:42 44.7158 -109.7181 113° Southeast 241 277 15,700 -634 Descending Salt Center
Tue 21:35:43 44.6869 -109.6261 114° Southeast 243 280 14,900 -341 Descending Salt Center
Tue 21:36:45 44.6686 -109.5450 108° East 231 266 15,000 97 Climbing Salt Center

Login

Don't have an account? Register now (free) for customized features, flight alerts, and more!